Time;durP1;ratioP1;P1;durP2;ratioP2;P2;SDS_P1;SDS_P2;PMS_P1;PMS_P2;Temp;Humidity;BMP_temperature;BMP_pressure;BME280_temperature;BME280_humidity;BME280_pressure;Samples;Min_cycle;Max_cycle;Signal;HPM_P1;HPM_P2
2022/11/02 00:02:15;;;;;;;144.38;66.15;;;9.30;99.90;;;;;;5026280;28;20508;-70
2022/11/02 00:04:41;;;;;;;174.90;75.63;;;9.40;99.90;;;;;;5033396;28;20041;-71
2022/11/02 00:07:07;;;;;;;165.20;68.90;;;9.30;99.90;;;;;;5033386;28;20025;-70
2022/11/02 00:09:33;;;;;;;213.82;81.72;;;9.20;99.90;;;;;;5033623;28;20022;-70
2022/11/02 00:11:59;;;;;;;212.13;83.00;;;9.30;99.90;;;;;;5033927;28;20472;-70
2022/11/02 00:14:25;;;;;;;200.27;84.35;;;9.40;99.90;;;;;;5053552;28;20025;-70
2022/11/02 00:16:51;;;;;;;203.63;80.70;;;9.30;99.90;;;;;;5053328;28;20048;-70
2022/11/02 00:19:17;;;;;;;187.70;74.82;;;9.20;99.90;;;;;;5053174;28;20559;-71
2022/11/02 00:21:43;;;;;;;152.75;67.60;;;9.20;99.90;;;;;;5053341;28;20116;-70
2022/11/02 00:24:10;;;;;;;145.80;63.85;;;9.10;99.90;;;;;;5053213;28;20068;-70
2022/11/02 00:26:36;;;;;;;150.20;65.53;;;9.10;99.90;;;;;;5053111;28;20025;-70
2022/11/02 00:29:05;;;;;;;134.65;63.30;;;9.10;99.90;;;;;;5053768;28;20025;-70
2022/11/02 00:31:31;;;;;;;137.48;64.97;;;9.00;99.90;;;;;;5039130;28;20064;-70
2022/11/02 00:33:57;;;;;;;152.68;67.47;;;9.00;99.90;;;;;;5039005;28;20032;-70
2022/11/02 00:36:24;;;;;;;149.95;67.60;;;8.90;99.90;;;;;;5056744;28;20120;-70
2022/11/02 00:38:50;;;;;;;140.48;65.55;;;8.90;99.90;;;;;;5038766;28;20120;-70
2022/11/02 00:41:19;;;;;;;150.55;68.93;;;8.80;99.90;;;;;;5022543;28;20033;-70
2022/11/02 00:43:45;;;;;;;149.55;66.35;;;8.80;99.90;;;;;;5056837;28;20079;-70
2022/11/02 00:46:11;;;;;;;163.90;65.60;;;8.70;99.90;;;;;;5055246;28;20040;-70
2022/11/02 00:48:37;;;;;;;176.07;70.47;;;8.80;99.90;;;;;;5038653;28;20029;-70
2022/11/02 00:51:04;;;;;;;180.60;71.03;;;8.70;99.90;;;;;;5038555;28;20078;-70
2022/11/02 00:53:29;;;;;;;142.70;62.22;;;8.80;99.90;;;;;;5022085;28;20116;-70
2022/11/02 00:55:55;;;;;;;139.73;59.80;;;8.80;99.90;;;;;;5038695;28;20025;-70
2022/11/02 00:58:21;;;;;;;156.93;64.72;;;8.80;99.90;;;;;;5056396;28;20025;-70
2022/11/02 01:00:49;;;;;;;107.70;48.38;;;8.70;99.90;;;;;;5037012;28;20386;-69
2022/11/02 01:03:15;;;;;;;155.57;63.30;;;8.80;99.90;;;;;;5050246;28;20040;-70
2022/11/02 01:05:41;;;;;;;136.65;56.95;;;8.70;99.90;;;;;;5038348;28;20055;-70
2022/11/02 01:08:08;;;;;;;100.78;48.38;;;8.60;99.90;;;;;;5056294;28;20032;-70
2022/11/02 01:10:34;;;;;;;115.85;52.92;;;8.50;99.90;;;;;;5056419;28;20029;-70
2022/11/02 01:13:00;;;;;;;114.90;51.83;;;8.50;99.90;;;;;;5064823;28;20052;-70
2022/11/02 01:15:26;;;;;;;112.57;50.63;;;8.50;99.90;;;;;;5076325;28;20029;-70
2022/11/02 01:17:52;;;;;;;108.57;52.38;;;8.40;99.90;;;;;;5058171;28;20089;-70
2022/11/02 01:20:18;;;;;;;113.97;53.22;;;8.40;99.90;;;;;;5041304;28;20055;-70
2022/11/02 01:22:44;;;;;;;112.22;54.95;;;8.40;99.90;;;;;;5076061;28;20486;-70
2022/11/02 01:25:11;;;;;;;111.18;53.63;;;8.40;99.90;;;;;;5057766;28;20055;-70
2022/11/02 01:27:37;;;;;;;108.20;52.88;;;8.40;99.90;;;;;;5075948;28;20035;-70
2022/11/02 01:30:06;;;;;;;108.70;54.13;;;8.30;99.90;;;;;;5075806;28;20028;-70
2022/11/02 01:32:32;;;;;;;112.65;53.47;;;8.30;99.90;;;;;;5075706;28;20032;-70
2022/11/02 01:34:58;;;;;;;121.47;55.80;;;8.30;99.90;;;;;;5075851;28;20024;-70
2022/11/02 01:37:24;;;;;;;126.32;56.78;;;8.30;99.90;;;;;;5073923;28;20405;-70
2022/11/02 01:39:50;;;;;;;103.47;50.00;;;8.30;99.90;;;;;;5037509;28;20037;-70
2022/11/02 01:42:19;;;;;;;96.22;50.30;;;8.20;99.90;;;;;;5054642;28;20112;-70
2022/11/02 01:44:45;;;;;;;110.65;53.83;;;8.20;99.90;;;;;;5055435;28;20029;-70
2022/11/02 01:47:30;;;;;;;120.30;56.72;;;8.20;99.90;;;;;;5055281;28;20028;-70
2022/11/02 01:50:11;;;;;;;115.22;55.05;;;8.20;99.90;;;;;;5055659;28;20379;-70
2022/11/02 01:52:38;;;;;;;141.48;61.55;;;8.20;99.90;;;;;;5037589;28;20030;-70
2022/11/02 01:55:34;;;;;;;139.88;61.80;;;8.20;99.90;;;;;;5037425;28;20035;-70
2022/11/02 01:58:05;;;;;;;128.60;57.20;;;8.10;99.90;;;;;;5016632;28;20372;-70
2022/11/02 02:00:32;;;;;;;136.77;62.17;;;8.10;99.90;;;;;;5037296;28;20093;-70
2022/11/02 02:03:06;;;;;;;135.35;59.60;;;8.10;99.90;;;;;;5055231;28;20163;-70
2022/11/02 02:05:34;;;;;;;122.22;56.00;;;8.10;99.90;;;;;;5055139;28;20043;-70
2022/11/02 02:08:02;;;;;;;100.93;49.60;;;8.10;99.90;;;;;;5055099;28;20025;-70
2022/11/02 02:10:29;;;;;;;95.75;46.42;;;8.10;99.90;;;;;;5037360;28;20445;-70
2022/11/02 02:12:55;;;;;;;100.07;48.42;;;8.20;99.90;;;;;;5028891;28;20036;-70
2022/11/02 02:15:26;;;;;;;119.57;53.78;;;8.20;99.90;;;;;;5017073;28;20104;-70
2022/11/02 02:18:13;;;;;;;110.22;50.95;;;8.00;99.90;;;;;;5035227;28;20033;-70
2022/11/02 02:20:53;;;;;;;109.45;50.28;;;8.00;99.90;;;;;;5017329;28;20136;-70
2022/11/02 02:23:42;;;;;;;115.97;50.00;;;7.90;99.90;;;;;;5016904;28;20116;-70
2022/11/02 02:26:14;;;;;;;111.63;50.83;;;8.10;99.90;;;;;;5016973;28;20510;-70
2022/11/02 02:28:59;;;;;;;121.00;52.80;;;8.00;99.90;;;;;;5034719;28;20018;-70
2022/11/02 02:32:01;;;;;;;122.53;54.65;;;8.00;99.90;;;;;;5017256;28;20026;-70
2022/11/02 02:34:38;;;;;;;111.97;53.67;;;7.90;99.90;;;;;;5034788;28;20036;-70
2022/11/02 02:37:09;;;;;;;115.63;54.80;;;7.80;99.90;;;;;;5027376;28;20033;-70
2022/11/02 02:40:14;;;;;;;119.97;56.25;;;7.80;99.90;;;;;;5034386;28;20044;-70
2022/11/02 02:42:48;;;;;;;111.47;53.38;;;7.70;99.90;;;;;;4919145;29;20043;-70
2022/11/02 02:45:35;;;;;;;117.03;50.65;;;7.70;99.90;;;;;;4998150;28;20547;-70
2022/11/02 02:48:13;;;;;;;104.32;50.10;;;7.70;99.90;;;;;;5026886;28;20021;-70
2022/11/02 02:51:08;;;;;;;97.03;47.25;;;7.60;99.90;;;;;;5016762;28;20029;-70
2022/11/02 02:53:45;;;;;;;91.80;44.88;;;7.70;99.90;;;;;;5016135;28;20498;-70
2022/11/02 02:56:16;;;;;;;86.40;42.67;;;7.70;99.90;;;;;;5016565;28;20026;-70
2022/11/02 02:58:59;;;;;;;91.53;41.65;;;7.60;99.90;;;;;;5034551;28;20099;-70
2022/11/02 03:01:26;;;;;;;85.00;42.83;;;7.60;99.90;;;;;;5020336;28;20107;-70
2022/11/02 03:03:53;;;;;;;77.00;39.83;;;7.60;99.90;;;;;;5033086;28;20042;-70
2022/11/02 03:06:33;;;;;;;86.43;42.58;;;7.50;99.90;;;;;;5012828;28;20181;-70
2022/11/02 03:09:25;;;;;;;98.72;48.20;;;7.60;99.90;;;;;;5029607;28;20072;-70
2022/11/02 03:12:08;;;;;;;91.10;45.13;;;7.70;99.90;;;;;;5032774;28;20491;-70
2022/11/02 03:14:53;;;;;;;92.13;45.47;;;7.70;99.90;;;;;;4996868;28;20026;-70
2022/11/02 03:17:42;;;;;;;80.68;42.03;;;7.60;99.90;;;;;;4996609;28;20030;-70
2022/11/02 03:20:49;;;;;;;91.75;45.25;;;7.50;99.90;;;;;;5014065;28;20037;-70
2022/11/02 03:23:27;;;;;;;95.95;44.83;;;7.40;99.90;;;;;;4996801;28;20050;-70
2022/11/02 03:26:00;;;;;;;88.35;45.35;;;7.40;99.90;;;;;;5012893;28;20041;-70
2022/11/02 03:29:06;;;;;;;81.18;42.45;;;7.40;99.90;;;;;;5012973;28;20030;-70
2022/11/02 03:31:50;;;;;;;89.32;41.47;;;7.40;99.90;;;;;;4980658;28;20042;-70
2022/11/02 03:34:31;;;;;;;80.70;41.35;;;7.40;99.90;;;;;;5012598;28;20034;-70
2022/11/02 03:37:03;;;;;;;77.20;38.50;;;7.40;99.90;;;;;;5013040;28;20033;-70
2022/11/02 03:39:40;;;;;;;73.90;38.33;;;7.60;99.90;;;;;;5031252;28;20029;-70
2022/11/02 03:42:11;;;;;;;78.78;39.45;;;7.50;99.90;;;;;;5016049;28;20086;-70
2022/11/02 03:44:38;;;;;;;81.03;40.85;;;7.60;99.90;;;;;;5016173;28;20433;-70
2022/11/02 03:47:11;;;;;;;81.07;40.85;;;7.50;99.90;;;;;;5015842;28;20041;-70
2022/11/02 03:49:40;;;;;;;90.85;41.85;;;7.40;99.90;;;;;;5016030;28;20438;-70
2022/11/02 03:52:11;;;;;;;86.28;42.83;;;7.30;99.90;;;;;;5032023;28;20087;-70
2022/11/02 03:54:52;;;;;;;88.50;41.67;;;7.30;99.90;;;;;;5016112;28;20549;-70
2022/11/02 03:57:22;;;;;;;83.43;42.00;;;7.20;99.90;;;;;;5015966;28;20033;-70
2022/11/02 03:59:49;;;;;;;73.80;37.40;;;7.10;99.90;;;;;;5033897;28;20176;-70
2022/11/02 04:02:16;;;;;;;72.55;37.08;;;7.20;99.90;;;;;;5024940;28;20084;-70
2022/11/02 04:04:51;;;;;;;70.10;34.90;;;7.20;99.90;;;;;;5034226;28;20124;-70
2022/11/02 04:08:19;;;;;;;74.30;37.20;;;7.10;99.90;;;;;;5036156;28;20105;-70
2022/11/02 04:10:17;;;;;;;72.72;35.20;;;7.20;99.90;;;;;;5035998;28;20044;-70
2022/11/02 04:15:28;;;;;;;60.95;31.77;;;7.20;99.90;;;;;;5039504;28;20025;-70
2022/11/02 04:20:39;;;;;;;63.90;32.72;;;7.10;99.90;;;;;;5039340;28;20502;-70
2022/11/02 04:25:55;;;;;;;66.18;33.15;;;7.10;99.90;;;;;;5039172;28;20058;-70
2022/11/02 04:28:35;;;;;;;72.15;34.25;;;7.10;99.90;;;;;;5038972;28;20025;-70
2022/11/02 04:31:01;;;;;;;73.72;33.33;;;7.10;99.90;;;;;;5038910;28;20025;-70
2022/11/02 04:33:32;;;;;;;67.53;33.42;;;7.10;99.90;;;;;;5039078;28;20377;-70
2022/11/02 04:36:08;;;;;;;72.88;33.47;;;7.10;99.90;;;;;;5038718;28;20067;-70
2022/11/02 04:38:41;;;;;;;72.05;33.45;;;7.20;99.90;;;;;;5038730;28;20187;-70
2022/11/02 04:44:20;;;;;;;77.57;33.67;;;7.20;99.90;;;;;;5043667;28;20102;-70
2022/11/02 04:46:53;;;;;;;71.63;34.20;;;7.10;99.90;;;;;;5056662;28;20033;-70
2022/11/02 04:49:23;;;;;;;73.57;34.03;;;7.00;99.90;;;;;;5039041;28;20143;-70
2022/11/02 04:51:49;;;;;;;69.30;33.75;;;6.90;99.90;;;;;;5038687;28;20397;-70
2022/11/02 04:54:16;;;;;;;63.28;31.27;;;7.00;99.90;;;;;;5038630;28;20028;-70
2022/11/02 04:56:43;;;;;;;68.90;31.63;;;7.00;99.90;;;;;;5038913;28;20032;-70
2022/11/02 04:59:10;;;;;;;65.20;30.83;;;7.00;99.90;;;;;;5038480;28;20025;-70
2022/11/02 05:01:37;;;;;;;65.75;32.40;;;7.00;99.90;;;;;;5018408;28;20061;-70
2022/11/02 05:04:04;;;;;;;61.30;31.42;;;7.00;99.90;;;;;;5034990;28;20033;-70
2022/11/02 05:06:32;;;;;;;71.10;33.03;;;7.10;99.90;;;;;;5035129;28;20049;-70
2022/11/02 05:08:58;;;;;;;64.43;31.77;;;7.10;99.90;;;;;;5035223;28;20084;-70
2022/11/02 05:11:25;;;;;;;68.03;30.98;;;7.10;99.90;;;;;;5018463;28;20025;-70
2022/11/02 05:13:52;;;;;;;60.80;31.30;;;7.10;99.90;;;;;;5038011;28;20067;-70
2022/11/02 05:16:18;;;;;;;67.60;32.45;;;7.10;99.90;;;;;;5037917;28;20056;-70
2022/11/02 05:18:45;;;;;;;70.78;29.83;;;7.20;99.90;;;;;;5038235;28;20505;-70
2022/11/02 05:21:13;;;;;;;62.70;31.10;;;7.20;99.90;;;;;;5038212;28;20063;-70
2022/11/02 05:23:39;;;;;;;62.75;29.63;;;7.20;99.90;;;;;;5038191;28;20421;-70
2022/11/02 05:26:10;;;;;;;67.72;31.33;;;7.30;99.90;;;;;;5037790;28;20055;-70
2022/11/02 05:28:39;;;;;;;70.32;32.08;;;7.40;99.90;;;;;;5037989;28;20029;-70
2022/11/02 05:31:06;;;;;;;67.43;33.63;;;7.50;99.90;;;;;;5037960;28;20044;-70
2022/11/02 05:33:34;;;;;;;79.80;34.20;;;7.60;99.90;;;;;;5037824;28;20036;-70
2022/11/02 05:36:06;;;;;;;82.00;35.75;;;7.70;99.90;;;;;;5037781;28;20033;-70
2022/11/02 05:38:35;;;;;;;88.97;39.70;;;7.90;99.90;;;;;;5037693;28;20028;-70
2022/11/02 05:41:01;;;;;;;75.15;35.90;;;8.10;99.90;;;;;;5037700;28;20490;-70
2022/11/02 05:43:32;;;;;;;79.88;36.47;;;8.20;99.90;;;;;;5037825;28;20032;-70
2022/11/02 05:46:02;;;;;;;72.90;35.28;;;8.40;99.90;;;;;;5037514;28;20106;-70
2022/11/02 05:48:31;;;;;;;79.32;34.05;;;8.50;99.90;;;;;;5055748;28;20029;-70
2022/11/02 05:50:59;;;;;;;78.55;35.35;;;8.60;99.90;;;;;;5055566;28;20478;-70
2022/11/02 05:53:25;;;;;;;73.68;35.30;;;8.70;99.90;;;;;;5055667;28;20083;-71
2022/11/02 05:55:56;;;;;;;85.20;35.00;;;8.80;99.90;;;;;;5055455;28;20589;-70
2022/11/02 05:58:21;;;;;;;69.20;36.60;;;9.10;99.90;;;;;;5055327;28;20237;-70
2022/11/02 06:00:47;;;;;;;87.93;38.22;;;9.50;99.90;;;;;;5055055;28;20063;-70
2022/11/02 06:03:14;;;;;;;109.40;45.20;;;9.90;99.90;;;;;;5054991;28;20087;-70
2022/11/02 06:05:39;;;;;;;127.38;57.65;;;10.20;99.90;;;;;;5055324;28;20071;-70
2022/11/02 06:08:05;;;;;;;130.32;56.05;;;10.80;99.90;;;;;;5054784;28;20029;-70
2022/11/02 06:10:31;;;;;;;163.65;77.78;;;11.60;99.90;;;;;;5055167;28;20045;-70
2022/11/02 06:13:00;;;;;;;112.35;54.30;;;12.10;99.90;;;;;;5045244;28;20454;-70
2022/11/02 06:15:27;;;;;;;79.85;34.05;;;12.60;99.90;;;;;;5062384;28;20436;-70
2022/11/02 06:17:54;;;;;;;63.17;31.45;;;13.30;99.90;;;;;;5049693;28;20032;-71
2022/11/02 06:20:21;;;;;;;71.20;33.00;;;13.70;99.90;;;;;;5049178;28;20029;-71
2022/11/02 06:22:47;;;;;;;80.65;35.47;;;14.10;99.90;;;;;;5054617;28;20089;-71
2022/11/02 06:25:13;;;;;;;82.85;37.40;;;14.00;99.90;;;;;;5052476;28;20535;-71
2022/11/02 06:27:40;;;;;;;83.38;37.53;;;14.00;99.90;;;;;;5054324;28;20027;-71
2022/11/02 06:30:08;;;;;;;79.72;35.45;;;14.10;99.90;;;;;;5025747;28;20029;-71
2022/11/02 06:32:34;;;;;;;71.35;33.10;;;14.40;99.20;;;;;;5059966;28;20039;-71
2022/11/02 06:35:00;;;;;;;68.50;31.35;;;14.50;99.30;;;;;;5074894;28;20021;-71
2022/11/02 06:37:26;;;;;;;61.97;30.73;;;14.20;99.30;;;;;;5063716;28;20028;-71
2022/11/02 06:39:52;;;;;;;72.25;30.33;;;13.70;99.90;;;;;;5053710;28;20025;-71
2022/11/02 06:42:18;;;;;;;79.53;32.45;;;13.20;99.90;;;;;;5054386;28;20029;-71
2022/11/02 06:44:44;;;;;;;72.13;32.60;;;12.90;99.90;;;;;;5050790;28;20491;-71
2022/11/02 06:47:10;;;;;;;84.53;32.90;;;12.70;99.90;;;;;;5035270;28;20475;-71
2022/11/02 06:49:41;;;;;;;78.57;32.47;;;12.80;99.90;;;;;;5051983;28;20060;-71
2022/11/02 06:52:08;;;;;;;75.53;34.53;;;12.70;99.90;;;;;;5053007;28;20032;-71
2022/11/02 06:54:34;;;;;;;66.70;34.15;;;12.50;99.90;;;;;;5053795;28;20032;-71
2022/11/02 06:57:00;;;;;;;88.57;37.67;;;12.50;99.90;;;;;;5050332;28;20078;-71
2022/11/02 06:59:25;;;;;;;80.28;39.97;;;12.60;99.90;;;;;;5052435;28;20029;-71
2022/11/02 07:01:52;;;;;;;86.85;39.47;;;12.40;99.90;;;;;;5052740;28;20435;-71
2022/11/02 07:04:22;;;;;;;94.20;39.03;;;12.30;99.90;;;;;;5053300;28;20064;-71
2022/11/02 07:06:47;;;;;;;83.72;38.35;;;12.20;99.90;;;;;;5053180;28;20112;-71
2022/11/02 07:09:19;;;;;;;93.93;39.38;;;12.20;99.90;;;;;;5052033;28;20123;-71
2022/11/02 07:11:45;;;;;;;95.75;41.60;;;12.20;99.90;;;;;;5053021;28;20044;-71
2022/11/02 07:14:11;;;;;;;109.43;43.13;;;12.10;99.90;;;;;;5050897;28;20048;-71
2022/11/02 07:16:37;;;;;;;91.57;41.75;;;12.30;99.90;;;;;;5051185;28;20475;-71
2022/11/02 07:19:03;;;;;;;88.97;40.92;;;12.30;99.90;;;;;;5053032;28;20144;-71
2022/11/02 07:21:36;;;;;;;97.22;41.90;;;12.40;99.90;;;;;;5055867;28;20025;-71
2022/11/02 07:24:02;;;;;;;103.05;42.13;;;12.20;99.90;;;;;;5043308;28;20029;-71
2022/11/02 07:26:28;;;;;;;90.00;41.42;;;12.20;99.90;;;;;;5053464;28;20027;-71
2022/11/02 07:28:54;;;;;;;100.78;41.67;;;12.20;99.90;;;;;;5052165;28;20502;-71
2022/11/02 07:31:19;;;;;;;89.97;41.88;;;12.50;99.90;;;;;;5052634;28;20029;-71
2022/11/02 07:33:45;;;;;;;92.85;41.55;;;12.50;99.90;;;;;;5053151;28;20025;-71
2022/11/02 07:36:12;;;;;;;100.57;44.97;;;12.60;99.90;;;;;;5056032;28;20131;-71
2022/11/02 07:38:38;;;;;;;99.78;44.67;;;12.90;99.90;;;;;;5038289;28;20068;-71
2022/11/02 07:41:04;;;;;;;95.57;43.22;;;13.10;99.90;;;;;;5052133;28;20078;-71
2022/11/02 07:43:33;;;;;;;90.22;42.15;;;13.00;99.90;;;;;;5053277;28;20545;-71
2022/11/02 07:46:12;;;;;;;105.28;44.83;;;13.30;99.90;;;;;;5061109;28;20070;-71
2022/11/02 07:48:39;;;;;;;99.97;43.47;;;13.50;99.90;;;;;;5063126;28;20029;-71
2022/11/02 07:51:06;;;;;;;106.70;46.70;;;13.80;99.90;;;;;;5056696;28;20036;-71
2022/11/02 07:53:33;;;;;;;99.65;45.25;;;13.70;99.90;;;;;;5058812;28;20041;-71
2022/11/02 07:56:00;;;;;;;102.63;42.67;;;13.80;99.90;;;;;;5058581;28;20117;-72
2022/11/02 07:58:26;;;;;;;100.32;42.42;;;13.90;99.90;;;;;;5058081;28;20025;-72
2022/11/02 08:00:53;;;;;;;104.82;45.83;;;13.90;99.90;;;;;;5056194;28;20043;-71
2022/11/02 08:03:19;;;;;;;102.07;42.35;;;13.80;99.90;;;;;;5060218;28;20037;-72
2022/11/02 08:05:45;;;;;;;112.25;44.92;;;13.50;99.90;;;;;;5056427;28;20116;-72
2022/11/02 08:08:13;;;;;;;102.32;42.92;;;13.50;99.90;;;;;;5054777;28;20068;-72
2022/11/02 08:10:39;;;;;;;96.88;41.03;;;13.60;99.90;;;;;;5055371;28;20034;-72
2022/11/02 08:13:09;;;;;;;109.65;45.58;;;13.50;99.90;;;;;;5055919;28;20032;-72
2022/11/02 08:15:36;;;;;;;99.07;44.53;;;13.70;99.90;;;;;;5056768;28;20049;-72
2022/11/02 08:18:17;;;;;;;97.20;46.15;;;13.70;99.90;;;;;;5056552;28;20025;-72
2022/11/02 08:20:45;;;;;;;106.07;42.60;;;13.60;99.90;;;;;;5055950;28;20114;-72
2022/11/02 08:23:11;;;;;;;106.05;43.72;;;13.70;99.90;;;;;;5056995;28;20104;-72
2022/11/02 08:25:38;;;;;;;108.03;45.65;;;13.90;99.90;;;;;;5056394;28;20029;-72
2022/11/02 08:28:06;;;;;;;93.75;44.28;;;14.00;99.90;;;;;;5057352;28;20021;-72
2022/11/02 08:30:33;;;;;;;106.07;47.95;;;13.80;99.90;;;;;;5056984;28;20061;-72
2022/11/02 08:33:04;;;;;;;102.32;43.03;;;13.80;99.90;;;;;;5056920;28;20475;-72
2022/11/02 08:35:30;;;;;;;102.50;43.55;;;14.00;99.90;;;;;;5057184;28;20100;-72
2022/11/02 08:37:56;;;;;;;92.22;40.85;;;14.10;99.90;;;;;;5070538;28;20109;-71
2022/11/02 08:40:23;;;;;;;121.18;45.20;;;14.10;99.90;;;;;;5056173;28;20025;-72
2022/11/02 08:43:00;;;;;;;106.10;44.72;;;14.20;99.90;;;;;;5056368;28;20415;-71
2022/11/02 08:45:27;;;;;;;95.13;45.22;;;14.30;99.90;;;;;;5051940;28;20124;-72
2022/11/02 08:47:53;;;;;;;104.82;45.42;;;14.40;99.90;;;;;;5048360;28;20057;-72
2022/11/02 08:50:20;;;;;;;108.32;42.38;;;14.20;99.90;;;;;;5055516;28;20025;-71
2022/11/02 08:52:46;;;;;;;106.78;40.65;;;14.40;99.90;;;;;;5056453;28;20017;-71
2022/11/02 08:55:13;;;;;;;99.65;41.75;;;14.60;99.90;;;;;;5057566;28;20047;-71
2022/11/02 08:57:49;;;;;;;97.50;40.10;;;14.60;99.90;;;;;;5049002;28;20029;-72
2022/11/02 09:00:18;;;;;;;113.05;43.28;;;14.70;99.90;;;;;;5051293;28;20026;-72
2022/11/02 09:03:01;;;;;;;101.90;41.35;;;14.70;99.90;;;;;;5055100;28;20041;-72
2022/11/02 09:05:29;;;;;;;105.72;43.60;;;14.90;99.90;;;;;;5056783;28;20029;-72
2022/11/02 09:08:00;;;;;;;103.28;42.63;;;15.00;99.90;;;;;;5056469;28;20048;-72
2022/11/02 09:10:28;;;;;;;98.70;44.53;;;15.30;99.90;;;;;;5053505;28;20111;-72
2022/11/02 09:12:55;;;;;;;111.43;46.53;;;15.80;99.90;;;;;;5036563;28;20037;-72
2022/11/02 09:15:21;;;;;;;122.50;51.60;;;16.20;99.90;;;;;;5036343;28;20029;-72
2022/11/02 09:17:50;;;;;;;102.35;45.33;;;16.60;99.90;;;;;;5036406;28;20033;-72
2022/11/02 09:20:17;;;;;;;104.07;44.35;;;17.00;99.90;;;;;;5060858;28;20379;-72
2022/11/02 09:22:46;;;;;;;90.97;44.10;;;17.50;99.00;;;;;;5071958;28;20024;-72
2022/11/02 09:25:13;;;;;;;94.53;41.40;;;18.00;96.30;;;;;;5060557;28;20072;-72
2022/11/02 09:27:40;;;;;;;116.85;41.60;;;19.20;94.20;;;;;;5069377;28;20028;-72
2022/11/02 09:30:07;;;;;;;83.97;38.83;;;20.10;91.10;;;;;;5046607;28;20029;-72
2022/11/02 09:32:33;;;;;;;75.63;34.90;;;20.70;86.50;;;;;;5056656;28;20029;-73
2022/11/02 09:35:01;;;;;;;69.63;33.63;;;21.00;81.80;;;;;;5033024;28;20458;-73
2022/11/02 09:37:27;;;;;;;79.10;38.13;;;21.70;76.30;;;;;;5056501;28;20078;-73
2022/11/02 09:39:54;;;;;;;71.35;31.27;;;22.80;70.90;;;;;;5038143;28;20029;-73
2022/11/02 09:42:30;;;;;;;83.35;31.27;;;23.40;66.60;;;;;;5063676;28;20021;-73
2022/11/02 09:45:03;;;;;;;65.47;27.73;;;24.00;62.30;;;;;;5062755;28;20100;-74
2022/11/02 09:47:40;;;;;;;73.00;33.05;;;24.40;59.30;;;;;;5048705;28;20041;-74
2022/11/02 09:50:16;;;;;;;72.38;29.15;;;24.50;57.30;;;;;;5054811;28;20036;-74
2022/11/02 09:52:46;;;;;;;70.85;27.90;;;25.20;55.00;;;;;;5060186;28;20029;-74
2022/11/02 09:55:18;;;;;;;63.53;28.73;;;25.10;53.60;;;;;;5058383;28;20056;-74
2022/11/02 09:57:47;;;;;;;64.18;27.05;;;25.30;51.60;;;;;;5064821;28;20581;-74
2022/11/02 10:00:14;;;;;;;58.58;28.50;;;25.50;50.20;;;;;;5059764;28;20029;-74
2022/11/02 10:03:28;;;;;;;65.68;28.25;;;25.90;51.30;;;;;;5052901;28;20079;-74
2022/11/02 10:06:08;;;;;;;69.30;29.98;;;26.30;48.60;;;;;;5025709;28;20048;-74
2022/11/02 10:08:49;;;;;;;62.72;29.60;;;26.30;48.90;;;;;;5054373;28;20063;-74
2022/11/02 10:11:40;;;;;;;58.53;29.50;;;26.10;47.70;;;;;;5047493;28;20017;-74
2022/11/02 10:14:14;;;;;;;60.75;29.80;;;26.40;48.50;;;;;;5048835;28;20021;-75
2022/11/02 10:17:12;;;;;;;63.22;31.92;;;27.10;46.80;;;;;;5036997;28;20033;-74
2022/11/02 10:19:43;;;;;;;66.10;31.02;;;27.40;46.00;;;;;;5054984;28;20041;-75
2022/11/02 10:22:16;;;;;;;57.05;28.90;;;27.30;47.00;;;;;;5044455;28;20033;-77
2022/11/02 10:24:45;;;;;;;53.30;27.80;;;27.50;44.90;;;;;;5048128;28;20091;-76
2022/11/02 10:27:35;;;;;;;77.90;31.55;;;27.60;44.60;;;;;;5044069;28;20032;-76
2022/11/02 10:30:20;;;;;;;58.55;27.55;;;27.60;43.40;;;;;;5067939;28;20040;-76
2022/11/02 10:32:52;;;;;;;57.90;29.52;;;27.60;43.00;;;;;;5074907;28;20074;-76
2022/11/02 10:35:49;;;;;;;55.88;28.05;;;27.70;42.80;;;;;;5074152;28;20142;-76
2022/11/02 10:38:30;;;;;;;64.38;30.17;;;27.90;42.90;;;;;;5028048;28;20402;-75
2022/11/02 10:40:59;;;;;;;64.72;32.25;;;28.50;41.00;;;;;;5048635;28;20487;-75
2022/11/02 10:43:34;;;;;;;73.18;35.38;;;29.00;42.00;;;;;;5041028;28;20144;-75
2022/11/02 10:46:25;;;;;;;90.50;38.97;;;28.90;41.60;;;;;;5050829;28;20063;-75
2022/11/02 10:49:32;;;;;;;70.10;36.85;;;29.10;40.80;;;;;;5054636;28;20060;-74
2022/11/02 10:51:58;;;;;;;89.00;37.67;;;28.70;40.30;;;;;;5024907;28;20041;-75
2022/11/02 10:54:25;;;;;;;74.50;35.80;;;28.90;39.70;;;;;;5047163;28;20076;-75
2022/11/02 10:56:51;;;;;;;60.63;31.98;;;29.10;38.70;;;;;;5038688;28;20022;-74
2022/11/02 10:59:22;;;;;;;58.47;28.42;;;29.00;38.80;;;;;;5054449;28;20021;-74
2022/11/02 11:02:03;;;;;;;50.90;28.15;;;28.70;37.70;;;;;;5053597;28;20052;-74
2022/11/02 11:04:30;;;;;;;50.08;26.58;;;29.00;37.40;;;;;;5054502;28;20087;-74
2022/11/02 11:07:03;;;;;;;52.70;24.88;;;29.00;37.30;;;;;;5054228;28;20032;-74
2022/11/02 11:09:45;;;;;;;59.70;27.20;;;29.20;37.50;;;;;;5036449;28;20087;-74
2022/11/02 11:12:33;;;;;;;55.40;28.20;;;29.00;36.40;;;;;;5046860;28;20083;-75
2022/11/02 11:15:01;;;;;;;69.68;32.33;;;28.70;37.50;;;;;;5053497;28;20028;-74
2022/11/02 11:17:31;;;;;;;59.35;27.80;;;28.60;36.00;;;;;;5035942;28;20044;-74
2022/11/02 11:19:58;;;;;;;58.45;26.23;;;28.50;36.10;;;;;;5048411;28;20037;-74
2022/11/02 11:22:29;;;;;;;56.63;27.15;;;27.70;35.60;;;;;;5054429;28;20043;-73
2022/11/02 11:25:18;;;;;;;64.72;29.65;;;28.10;35.70;;;;;;5048392;28;20033;-74
2022/11/02 11:27:53;;;;;;;52.83;27.98;;;27.90;36.60;;;;;;5039285;28;20123;-75
2022/11/02 11:30:28;;;;;;;53.45;29.23;;;28.10;35.10;;;;;;5043333;28;20048;-74
2022/11/02 11:32:56;;;;;;;53.00;28.75;;;28.30;36.40;;;;;;5053605;28;20028;-75
2022/11/02 11:35:23;;;;;;;67.90;30.27;;;28.10;34.30;;;;;;5050533;28;20017;-74
2022/11/02 11:37:56;;;;;;;62.33;31.95;;;28.10;34.40;;;;;;5050773;28;20023;-74
2022/11/02 11:40:24;;;;;;;64.20;31.20;;;27.70;34.70;;;;;;5053052;28;20029;-75
2022/11/02 11:42:53;;;;;;;70.90;32.55;;;27.40;34.90;;;;;;5053700;28;20024;-73
2022/11/02 11:45:22;;;;;;;62.38;30.52;;;27.00;36.30;;;;;;5053474;28;20028;-74
2022/11/02 11:47:54;;;;;;;61.72;30.80;;;26.60;37.50;;;;;;5046487;28;20025;-74
2022/11/02 11:50:21;;;;;;;56.03;28.15;;;26.30;39.60;;;;;;5053209;28;20037;-74
2022/11/02 11:53:06;;;;;;;65.90;29.48;;;26.30;38.60;;;;;;5053232;28;20048;-75
2022/11/02 11:55:33;;;;;;;48.67;25.35;;;26.30;39.90;;;;;;5044930;28;20498;-74
2022/11/02 11:58:05;;;;;;;60.83;26.75;;;26.20;40.20;;;;;;5042651;28;20029;-74
2022/11/02 12:00:31;;;;;;;53.40;25.52;;;26.30;39.70;;;;;;5052904;28;20025;-74
2022/11/02 12:03:08;;;;;;;52.42;25.25;;;26.20;39.80;;;;;;5053517;28;20040;-74
2022/11/02 12:05:53;;;;;;;50.08;23.65;;;26.20;39.70;;;;;;5052430;28;20033;-73
2022/11/02 12:08:35;;;;;;;45.88;20.48;;;26.30;38.20;;;;;;5033533;28;20147;-74
2022/11/02 12:11:16;;;;;;;44.25;20.55;;;26.50;38.20;;;;;;5043022;28;20049;-74
2022/11/02 12:14:12;;;;;;;36.03;16.70;;;26.60;36.30;;;;;;5048444;28;20545;-74
2022/11/02 12:16:59;;;;;;;31.08;15.50;;;26.90;35.80;;;;;;5051911;28;20029;-74
2022/11/02 12:19:38;;;;;;;28.45;13.73;;;27.30;35.50;;;;;;5050294;28;20025;-75
2022/11/02 12:22:27;;;;;;;32.67;15.20;;;27.20;34.20;;;;;;5052935;28;20033;-75
2022/11/02 12:25:15;;;;;;;39.95;17.33;;;27.20;34.10;;;;;;5026053;28;20042;-75
2022/11/02 12:27:46;;;;;;;35.72;15.90;;;27.10;34.70;;;;;;5043795;28;20146;-75
2022/11/02 12:30:23;;;;;;;42.00;18.92;;;27.50;35.30;;;;;;5038587;28;20120;-76
2022/11/02 12:33:14;;;;;;;37.03;15.85;;;25.90;35.80;;;;;;5036481;28;20032;-75
2022/11/02 12:35:57;;;;;;;47.53;17.25;;;26.60;37.10;;;;;;5051731;28;20029;-75
2022/11/02 12:38:38;;;;;;;33.05;15.77;;;26.80;36.50;;;;;;5052572;28;20037;-75
2022/11/02 12:41:12;;;;;;;31.25;15.52;;;27.20;35.60;;;;;;5040927;28;20104;-75
2022/11/02 12:43:50;;;;;;;40.72;17.65;;;27.30;35.40;;;;;;5041435;28;20029;-75
2022/11/02 12:46:32;;;;;;;35.67;15.65;;;26.70;35.00;;;;;;5051663;28;20475;-75
2022/11/02 12:49:10;;;;;;;39.08;15.23;;;26.80;36.00;;;;;;5049869;28;20033;-75
2022/11/02 12:51:47;;;;;;;37.10;14.55;;;26.70;35.20;;;;;;5036278;28;20056;-75
2022/11/02 12:54:20;;;;;;;35.58;14.85;;;26.10;35.50;;;;;;5053228;28;20540;-75
2022/11/02 12:56:51;;;;;;;34.25;14.65;;;27.00;36.00;;;;;;5045172;28;20463;-76
2022/11/02 12:59:26;;;;;;;43.25;17.20;;;27.10;34.10;;;;;;5054158;28;20451;-75
2022/11/02 13:02:04;;;;;;;35.67;14.32;;;27.30;35.20;;;;;;5051072;28;20055;-75
2022/11/02 13:04:42;;;;;;;24.63;13.05;;;27.50;34.30;;;;;;5055835;28;20087;-75